Terminal Aerodrome Forecast
Issued by NWS

Current Version | Previous Version | Text Only | Print | Product List | Glossary Off
Versions: 1 2 3 4 5 6 7 8 9 10 11 12 13 14 15 16 17 18

000
FTUS41 KPBZ 311132
TAFMGW
TAF
KMGW 311132Z 3112/0112 00000KT P6SM SKC
     FM311400 23005KT P6SM SCT040 BKN250
     FM010900 00000KT 2SM BR SKC=

USA.gov is the U.S. government's official web portal to all federal, state and local government web resources and services.